Copper Hill, Virginia
Current Conditions -  °F | °C
As of 10:15 PM on Thursday 18 Dec 2014 (Local Time) from KBCB Reporting Station
Broken Clouds Broken Clouds  
Wind Chill: 25°   Ceiling: 7000
Heat Index: 33°   Visibility: 10mi
Dew Point: 19°   Wind: 8mph
Humidity: 58%   Direction: 300°WNW
Pressure: 30.1"   Gusts: NA
Location:  37.08°N, 80.15°W
Report Text: KBCB 190315Z AUTO 30007KT 10SM BKN070 00/M07 A3010 RMK AO2 T00031070
Loading
Personal Weather Stations






























Interactive Weather Map New forecast layout! Learn more

10-Day Weather Forecast

Advertisements
Track Severe Weather on mobile